^^
Meteo Knjazevac Station Historical Data
Daily Summary for September 15, 2022 Units:  Both    English   Metric
Daily Weekly Monthly Yearly Custom
  High: Low: Average:
Temperature: 48.2 °F /  9 °C 42.1 °F /  5.6 °C 44.3 °F /  6.8 °C
Dew Point: 46.6 °F /  8.1 °C 41.8 °F /  5.4 °C 43.8 °F /  6.6 °C
Humidity: 99% 93.5% 98%
Wind Speed: 6.8mph /  10.9km/h - 2.9mph /  4.7km/h
Wind Gust: 8mph /  12.9km/h - -
Wind- - ENE
Pressure: 30.27 in /  1024.9 hPa 30.02 in /  1016.5 hPa -
Precipitation: 0.00 in /  0 mm    
Historical Graphs
 
 
Tabular Data for September 15, 2022
Time Temperature Dew Point Pressure Wind Wind Speed Wind Gust Humidity Rainfall Rate (Hourly) solar Conditions
00:04 42.6 °F /  5.9 °C 42.4 °F /  5.8 °C 30.27in /  1024.9hPa North 3.1mph /  5km/h 5mph /  8km/h 99% 0.00in /  0mm 0 W/m2
00:09 42.7 °F /  5.9 °C 42.4 °F /  5.8 °C 30.27in /  1024.9hPa North 1.5mph /  2.4km/h 4mph /  6.4km/h 99% 0.00in /  0mm 0 W/m2
00:14 42.6 °F /  5.9 °C 42.4 °F /  5.8 °C 30.27in /  1024.9hPa North 2.4mph /  3.9km/h 2mph /  3.2km/h 99% 0.00in /  0mm 0 W/m2
00:19 42.6 °F /  5.9 °C 42.4 °F /  5.8 °C 30.27in /  1024.9hPa North 2.3mph /  3.7km/h 3mph /  4.8km/h 99% 0.00in /  0mm 0 W/m2
00:24 42.6 °F /  5.9 °C 42.4 °F /  5.8 °C 30.27in /  1024.9hPa North 0.7mph /  1.1km/h 3mph /  4.8km/h 99% 0.00in /  0mm 0 W/m2
00:29 42.6 °F /  5.9 °C 42.4 °F /  5.8 °C 30.27in /  1024.9hPa NNE 1.5mph /  2.4km/h 2mph /  3.2km/h 99% 0.00in /  0mm 0 W/m2
00:34 42.6 °F /  5.9 °C 42.4 °F /  5.8 °C 30.27in /  1024.9hPa NNE 1.2mph /  1.9km/h 2mph /  3.2km/h 99% 0.00in /  0mm 0 W/m2
00:39 42.7 °F /  5.9 °C 42.5 °F /  5.8 °C 30.27in /  1024.9hPa North 0.8mph /  1.3km/h 2mph /  3.2km/h 99% 0.00in /  0mm 0 W/m2
00:44 42.6 °F /  5.9 °C 42.4 °F /  5.8 °C 30.27in /  1024.9hPa North 1.5mph /  2.4km/h 1.1mph /  1.8km/h 99% 0.00in /  0mm 0 W/m2
00:49 42.7 °F /  5.9 °C 42.4 °F /  5.8 °C 30.27in /  1024.9hPa NNE 1.7mph /  2.7km/h 2mph /  3.2km/h 99% 0.00in /  0mm 0 W/m2
00:54 42.6 °F /  5.9 °C 42.4 °F /  5.8 °C 30.27in /  1024.9hPa NNE 2.2mph /  3.5km/h 2mph /  3.2km/h 99% 0.00in /  0mm 0 W/m2
00:59 42.7 °F /  5.9 °C 42.5 °F /  5.8 °C 30.27in /  1024.9hPa North 0.9mph /  1.4km/h 2mph /  3.2km/h 99% 0.00in /  0mm 0 W/m2
01:04 42.6 °F /  5.9 °C 42.4 °F /  5.8 °C 30.27in /  1024.9hPa North 1.5mph /  2.4km/h 2mph /  3.2km/h 99% 0.00in /  0mm 0 W/m2
01:09 42.6 °F /  5.9 °C 42.4 °F /  5.8 °C 30.26in /  1024.6hPa North 0.8mph /  1.3km/h 2mph /  3.2km/h 99% 0.00in /  0mm 0 W/m2
01:14 42.6 °F /  5.9 °C 42.4 °F /  5.8 °C 30.26in /  1024.6hPa NNE 1.2mph /  1.9km/h 1mph /  1.6km/h 99% 0.00in /  0mm 0 W/m2
01:19 42.6 °F /  5.9 °C 42.4 °F /  5.8 °C 30.26in /  1024.6hPa NNE 1mph /  1.6km/h 2mph /  3.2km/h 99% 0.00in /  0mm 0 W/m2
01:24 42.6 °F /  5.9 °C 42.4 °F /  5.8 °C 30.26in /  1024.6hPa North 2.7mph /  4.3km/h 2mph /  3.2km/h 99% 0.00in /  0mm 0 W/m2
01:29 42.6 °F /  5.9 °C 42.4 °F /  5.8 °C 30.26in /  1024.6hPa North 2.8mph /  4.5km/h 3mph /  4.8km/h 99% 0.00in /  0mm 0 W/m2
01:34 42.6 °F /  5.9 °C 42.4 °F /  5.8 °C 30.26in /  1024.6hPa North 3mph /  4.8km/h 4mph /  6.4km/h 99% 0.00in /  0mm 0 W/m2
01:39 42.6 °F /  5.9 °C 42.4 °F /  5.8 °C 30.26in /  1024.6hPa North 2.5mph /  4km/h 4mph /  6.4km/h 99% 0.00in /  0mm 0 W/m2
01:44 42.6 °F /  5.9 °C 42.4 °F /  5.8 °C 30.26in /  1024.6hPa North 2.1mph /  3.4km/h 3mph /  4.8km/h 99% 0.00in /  0mm 0 W/m2
01:49 42.6 °F /  5.9 °C 42.4 °F /  5.8 °C 30.25in /  1024.3hPa North 3.1mph /  5km/h 3mph /  4.8km/h 99% 0.00in /  0mm 0 W/m2
01:54 42.6 °F /  5.9 °C 42.4 °F /  5.8 °C 30.25in /  1024.3hPa Calm   4mph /  6.4km/h 99% 0.00in /  0mm 0 W/m2
01:59 42.6 °F /  5.9 °C 42.4 °F /  5.8 °C 30.25in /  1024.3hPa NE 0.6mph /  1km/h   99% 0.00in /  0mm 0 W/m2
02:04 42.6 °F /  5.9 °C 42.4 °F /  5.8 °C 30.25in /  1024.3hPa NNE 2.2mph /  3.5km/h 3mph /  4.8km/h 99% 0.00in /  0mm 0 W/m2
02:09 42.7 °F /  5.9 °C 42.5 °F /  5.8 °C 30.25in /  1024.3hPa North 1.8mph /  2.9km/h 3mph /  4.8km/h 99% 0.00in /  0mm 0 W/m2
02:14 42.7 °F /  5.9 °C 42.4 °F /  5.8 °C 30.25in /  1024.3hPa North 1.7mph /  2.7km/h 2mph /  3.2km/h 99% 0.00in /  0mm 0 W/m2
02:19 42.6 °F /  5.9 °C 42.4 °F /  5.8 °C 30.25in /  1024.3hPa North 2.2mph /  3.5km/h 2mph /  3.2km/h 99% 0.00in /  0mm 0 W/m2
02:24 42.8 °F /  6 °C 42.5 °F /  5.8 °C 30.25in /  1024.3hPa North 2.1mph /  3.4km/h 2mph /  3.2km/h 99% 0.00in /  0mm 0 W/m2
02:29 42.7 °F /  5.9 °C 42.5 °F /  5.8 °C 30.25in /  1024.3hPa North 2.6mph /  4.2km/h 3mph /  4.8km/h 99% 0.00in /  0mm 0 W/m2
02:34 42.8 °F /  6 °C 42.5 °F /  5.8 °C 30.25in /  1024.3hPa North 2.6mph /  4.2km/h 3mph /  4.8km/h 99% 0.00in /  0mm 0 W/m2
02:39 42.7 °F /  5.9 °C 42.5 °F /  5.8 °C 30.25in /  1024.3hPa North 2.2mph /  3.5km/h 3mph /  4.8km/h 99% 0.00in /  0mm 0 W/m2
02:44 42.8 °F /  6 °C 42.5 °F /  5.8 °C 30.25in /  1024.3hPa North 2.7mph /  4.3km/h 3mph /  4.8km/h 99% 0.00in /  0mm 0 W/m2
02:49 42.8 °F /  6 °C 42.5 °F /  5.8 °C 30.25in /  1024.3hPa North 3mph /  4.8km/h 3mph /  4.8km/h 99% 0.00in /  0mm 0 W/m2
02:54 42.8 °F /  6 °C 42.5 °F /  5.8 °C 30.25in /  1024.3hPa North 0.5mph /  0.8km/h 3mph /  4.8km/h 99% 0.00in /  0mm 0 W/m2
02:59 42.8 °F /  6 °C 42.5 °F /  5.8 °C 30.25in /  1024.3hPa North 0.6mph /  1km/h 1mph /  1.6km/h 99% 0.00in /  0mm 0 W/m2
03:04 42.8 °F /  6 °C 42.5 °F /  5.8 °C 30.25in /  1024.3hPa North 1.1mph /  1.8km/h 1mph /  1.6km/h 99% 0.00in /  0mm 0 W/m2
03:09 42.8 °F /  6 °C 42.5 °F /  5.8 °C 30.25in /  1024.3hPa North 1.6mph /  2.6km/h 1.3mph /  2.1km/h 99% 0.00in /  0mm 0 W/m2
03:14 42.8 °F /  6 °C 42.5 °F /  5.8 °C 30.24in /  1023.9hPa NNE 2.1mph /  3.4km/h 2mph /  3.2km/h 99% 0.00in /  0mm 0 W/m2
03:19 42.8 °F /  6 °C 42.5 °F /  5.8 °C 30.24in /  1023.9hPa NNE 2.1mph /  3.4km/h 2mph /  3.2km/h 99% 0.00in /  0mm 0 W/m2
03:24 42.7 °F /  5.9 °C 42.5 °F /  5.8 °C 30.24in /  1023.9hPa NNE 1.4mph /  2.3km/h 3mph /  4.8km/h 99% 0.00in /  0mm 0 W/m2
03:29 42.7 °F /  5.9 °C 42.5 °F /  5.8 °C 30.24in /  1023.9hPa NNE 1.6mph /  2.6km/h 2mph /  3.2km/h 99% 0.00in /  0mm 0 W/m2
03:34 42.8 °F /  6 °C 42.5 °F /  5.8 °C 30.24in /  1023.9hPa NNE 3mph /  4.8km/h 3mph /  4.8km/h 99% 0.00in /  0mm 0 W/m2
03:39 42.7 °F /  5.9 °C 42.5 °F /  5.8 °C 30.24in /  1023.9hPa North 2.3mph /  3.7km/h 3mph /  4.8km/h 99% 0.00in /  0mm 0 W/m2
03:44 42.6 °F /  5.9 °C 42.4 °F /  5.8 °C 30.23in /  1023.6hPa North 2.5mph /  4km/h 2mph /  3.2km/h 99% 0.00in /  0mm 0 W/m2
03:49 42.6 °F /  5.9 °C 42.4 °F /  5.8 °C 30.23in /  1023.6hPa North 2.1mph /  3.4km/h 3mph /  4.8km/h 99% 0.00in /  0mm 0 W/m2
03:54 42.7 °F /  5.9 °C 42.4 °F /  5.8 °C 30.24in /  1023.9hPa North 2.3mph /  3.7km/h 3mph /  4.8km/h 99% 0.00in /  0mm 0 W/m2
03:59 42.7 °F /  5.9 °C 42.4 °F /  5.8 °C 30.24in /  1023.9hPa North 1.5mph /  2.4km/h 3mph /  4.8km/h 99% 0.00in /  0mm 0 W/m2
04:04 42.7 °F /  5.9 °C 42.5 °F /  5.8 °C 30.24in /  1023.9hPa North 2.3mph /  3.7km/h 3mph /  4.8km/h 99% 0.00in /  0mm 0 W/m2
04:09 42.8 °F /  6 °C 42.5 °F /  5.8 °C 30.24in /  1023.9hPa North 1.5mph /  2.4km/h 3mph /  4.8km/h 99% 0.00in /  0mm 0 W/m2
04:14 42.8 °F /  6 °C 42.5 °F /  5.8 °C 30.23in /  1023.6hPa North 0.7mph /  1.1km/h 2mph /  3.2km/h 99% 0.00in /  0mm 0 W/m2
04:19 42.8 °F /  6 °C 42.5 °F /  5.8 °C 30.23in /  1023.6hPa North 1.5mph /  2.4km/h 2mph /  3.2km/h 99% 0.00in /  0mm 0 W/m2
04:24 42.8 °F /  6 °C 42.5 °F /  5.8 °C 30.23in /  1023.6hPa North 2.5mph /  4km/h 2mph /  3.2km/h 99% 0.00in /  0mm 0 W/m2
04:29 42.8 °F /  6 °C 42.5 °F /  5.8 °C 30.23in /  1023.6hPa North 1.5mph /  2.4km/h 3mph /  4.8km/h 99% 0.00in /  0mm 0 W/m2
04:34 42.8 °F /  6 °C 42.5 °F /  5.8 °C 30.23in /  1023.6hPa North 2.7mph /  4.3km/h 3mph /  4.8km/h 99% 0.00in /  0mm 0 W/m2
04:39 42.7 °F /  5.9 °C 42.4 °F /  5.8 °C 30.23in /  1023.6hPa North 1.9mph /  3.1km/h 3mph /  4.8km/h 99% 0.00in /  0mm 0 W/m2
04:44 42.7 °F /  5.9 °C 42.4 °F /  5.8 °C 30.23in /  1023.6hPa North 2.2mph /  3.5km/h 2mph /  3.2km/h 99% 0.00in /  0mm 0 W/m2
04:49 42.6 °F /  5.9 °C 42.4 °F /  5.8 °C 30.23in /  1023.6hPa North 1.8mph /  2.9km/h 2mph /  3.2km/h 99% 0.00in /  0mm 0 W/m2
04:54 42.6 °F /  5.9 °C 42.4 °F /  5.8 °C 30.23in /  1023.6hPa North 1.9mph /  3.1km/h 2mph /  3.2km/h 99% 0.00in /  0mm 0 W/m2
04:59 42.6 °F /  5.9 °C 42.4 °F /  5.8 °C 30.23in /  1023.6hPa North 2.6mph /  4.2km/h 3mph /  4.8km/h 99% 0.00in /  0mm 0 W/m2
05:04 42.6 °F /  5.9 °C 42.4 °F /  5.8 °C 30.23in /  1023.6hPa North 2.3mph /  3.7km/h 3mph /  4.8km/h 99% 0.00in /  0mm 0 W/m2
05:09 42.6 °F /  5.9 °C 42.4 °F /  5.8 °C 30.23in /  1023.6hPa North 2.1mph /  3.4km/h 3mph /  4.8km/h 99% 0.00in /  0mm 0 W/m2
05:14 42.6 °F /  5.9 °C 42.4 °F /  5.8 °C 30.22in /  1023.2hPa North 0.7mph /  1.1km/h 3mph /  4.8km/h 99% 0.00in /  0mm 0 W/m2
05:19 42.6 °F /  5.9 °C 42.4 °F /  5.8 °C 30.23in /  1023.6hPa North 0.4mph /  0.6km/h 2mph /  3.2km/h 99% 0.00in /  0mm 0 W/m2
05:24 42.6 °F /  5.9 °C 42.4 °F /  5.8 °C 30.22in /  1023.2hPa North 1.7mph /  2.7km/h 2mph /  3.2km/h 99% 0.00in /  0mm 0 W/m2
05:29 42.6 °F /  5.9 °C 42.3 °F /  5.7 °C 30.22in /  1023.2hPa North 1.3mph /  2.1km/h 2mph /  3.2km/h 99% 0.00in /  0mm 0 W/m2
05:34 42.4 °F /  5.8 °C 42.2 °F /  5.7 °C 30.22in /  1023.2hPa NNE 0.4mph /  0.6km/h 2mph /  3.2km/h 99% 0.00in /  0mm 0 W/m2
05:39 42.4 °F /  5.8 °C 42.2 °F /  5.7 °C 30.22in /  1023.2hPa NNE 0.8mph /  1.3km/h 1mph /  1.6km/h 99% 0.00in /  0mm 0 W/m2
05:44 42.4 °F /  5.8 °C 42.2 °F /  5.7 °C 30.22in /  1023.2hPa NNE 1.9mph /  3.1km/h 2mph /  3.2km/h 99% 0.00in /  0mm 0 W/m2
05:49 42.4 °F /  5.8 °C 42.2 °F /  5.7 °C 30.22in /  1023.2hPa NNE 2mph /  3.2km/h 3mph /  4.8km/h 99% 0.00in /  0mm 0 W/m2
05:54 42.4 °F /  5.8 °C 42.2 °F /  5.7 °C 30.22in /  1023.2hPa NNE 1.5mph /  2.4km/h 3mph /  4.8km/h 99% 0.00in /  0mm 0 W/m2
05:59 42.4 °F /  5.8 °C 42.1 °F /  5.6 °C 30.22in /  1023.2hPa NNE 0.7mph /  1.1km/h 2mph /  3.2km/h 99% 0.00in /  0mm 0 W/m2
06:04 42.4 °F /  5.8 °C 42.2 °F /  5.7 °C 30.22in /  1023.2hPa North 1.4mph /  2.3km/h 1mph /  1.6km/h 99% 0.00in /  0mm 0 W/m2
06:09 42.4 °F /  5.8 °C 42.1 °F /  5.6 °C 30.22in /  1023.2hPa NNE 1.1mph /  1.8km/h 2mph /  3.2km/h 99% 0.00in /  0mm 0 W/m2
06:14 42.4 °F /  5.8 °C 42.1 °F /  5.6 °C 30.22in /  1023.2hPa NNE 1.7mph /  2.7km/h 2mph /  3.2km/h 99% 0.00in /  0mm 0 W/m2
06:19 42.3 °F /  5.7 °C 42.1 °F /  5.6 °C 30.22in /  1023.2hPa North 0.7mph /  1.1km/h 2mph /  3.2km/h 99% 0.00in /  0mm 0 W/m2
06:24 42.3 °F /  5.7 °C 42 °F /  5.6 °C 30.22in /  1023.2hPa NNE 2.3mph /  3.7km/h 2mph /  3.2km/h 99% 0.00in /  0mm 1 W/m2
06:29 42.3 °F /  5.7 °C 42 °F /  5.6 °C 30.22in /  1023.2hPa NNE 2.4mph /  3.9km/h 3mph /  4.8km/h 99% 0.00in /  0mm 1 W/m2
06:34 42.3 °F /  5.7 °C 42 °F /  5.6 °C 30.22in /  1023.2hPa ENE 2.1mph /  3.4km/h 3mph /  4.8km/h 99% 0.00in /  0mm 3 W/m2
06:39 42.3 °F /  5.7 °C 42 °F /  5.6 °C 30.22in /  1023.2hPa East 1.8mph /  2.9km/h 2mph /  3.2km/h 99% 0.00in /  0mm 4 W/m2
06:44 42.1 °F /  5.6 °C 41.8 °F /  5.4 °C 30.22in /  1023.2hPa ENE 1.1mph /  1.8km/h 2mph /  3.2km/h 99% 0.00in /  0mm 8 W/m2
06:49 42.1 °F /  5.6 °C 41.8 °F /  5.4 °C 30.22in /  1023.2hPa NE 0.1mph /  0.2km/h 2mph /  3.2km/h 99% 0.00in /  0mm 10 W/m2
06:54 42.1 °F /  5.6 °C 41.8 °F /  5.4 °C 30.22in /  1023.2hPa NE 0.3mph /  0.5km/h 1mph /  1.6km/h 99% 0.00in /  0mm 15 W/m2
06:59 42.1 °F /  5.6 °C 41.8 °F /  5.4 °C 30.22in /  1023.2hPa Calm     99% 0.00in /  0mm 21 W/m2
07:04 42.2 °F /  5.7 °C 41.9 °F /  5.5 °C 30.22in /  1023.2hPa NNE 0.6mph /  1km/h 0.4mph /  0.6km/h 99% 0.00in /  0mm 24 W/m2
07:09 42.3 °F /  5.7 °C 42 °F /  5.6 °C 30.22in /  1023.2hPa North 0.7mph /  1.1km/h 2mph /  3.2km/h 99% 0.00in /  0mm 29 W/m2
07:14 42.3 °F /  5.7 °C 42 °F /  5.6 °C 30.22in /  1023.2hPa NNE 2.6mph /  4.2km/h 2.2mph /  3.5km/h 99% 0.00in /  0mm 33 W/m2
07:19 42.3 °F /  5.7 °C 42 °F /  5.6 °C 30.22in /  1023.2hPa ENE 3.3mph /  5.3km/h 4mph /  6.4km/h 99% 0.00in /  0mm 43 W/m2
07:24 42.3 °F /  5.7 °C 42 °F /  5.6 °C 30.22in /  1023.2hPa East 3.6mph /  5.8km/h 4mph /  6.4km/h 99% 0.00in /  0mm 49 W/m2
07:29 42.3 °F /  5.7 °C 42 °F /  5.6 °C 30.22in /  1023.2hPa East 3.4mph /  5.5km/h 5mph /  8km/h 99% 0.00in /  0mm 51 W/m2
07:34 42.4 °F /  5.8 °C 42.2 °F /  5.7 °C 30.22in /  1023.2hPa East 3.3mph /  5.3km/h 4mph /  6.4km/h 99% 0.00in /  0mm 51 W/m2
07:39 42.4 °F /  5.8 °C 42.2 °F /  5.7 °C 30.22in /  1023.2hPa East 3.4mph /  5.5km/h 4mph /  6.4km/h 99% 0.00in /  0mm 62 W/m2
07:44 42.5 °F /  5.8 °C 42.3 °F /  5.7 °C 30.22in /  1023.2hPa East 2.8mph /  4.5km/h 4mph /  6.4km/h 99% 0.00in /  0mm 77 W/m2
07:49 42.5 °F /  5.8 °C 42.3 °F /  5.7 °C 30.22in /  1023.2hPa ENE 2.5mph /  4km/h 3mph /  4.8km/h 99% 0.00in /  0mm 80 W/m2
07:54 42.4 °F /  5.8 °C 42.2 °F /  5.7 °C 30.22in /  1023.2hPa NE 1.7mph /  2.7km/h 2mph /  3.2km/h 99% 0.00in /  0mm 71 W/m2
07:59 42.5 °F /  5.8 °C 42.3 °F /  5.7 °C 30.22in /  1023.2hPa NE 1.9mph /  3.1km/h 3mph /  4.8km/h 99% 0.00in /  0mm 74 W/m2
08:04 42.5 °F /  5.8 °C 42.3 °F /  5.7 °C 30.22in /  1023.2hPa NNE 1.5mph /  2.4km/h 3mph /  4.8km/h 99% 0.00in /  0mm 75 W/m2
08:09 42.5 °F /  5.8 °C 42.3 °F /  5.7 °C 30.22in /  1023.2hPa NE 0.6mph /  1km/h 2mph /  3.2km/h 99% 0.00in /  0mm 95 W/m2
08:14 42.6 °F /  5.9 °C 42.4 °F /  5.8 °C 30.21in /  1022.9hPa ENE 2mph /  3.2km/h 2mph /  3.2km/h 99% 0.00in /  0mm 109 W/m2
08:19 42.8 °F /  6 °C 42.5 °F /  5.8 °C 30.21in /  1022.9hPa ENE 2.3mph /  3.7km/h 2.2mph /  3.5km/h 99% 0.00in /  0mm 117 W/m2
08:24 42.9 °F /  6.1 °C 42.6 °F /  5.9 °C 30.21in /  1022.9hPa NE 2.1mph /  3.4km/h 2mph /  3.2km/h 99% 0.00in /  0mm 126 W/m2
08:29 43.1 °F /  6.2 °C 42.8 °F /  6 °C 30.21in /  1022.9hPa NE 1.8mph /  2.9km/h 2mph /  3.2km/h 99% 0.00in /  0mm 136 W/m2
08:34 43.2 °F /  6.2 °C 42.9 °F /  6.1 °C 30.21in /  1022.9hPa NE 2.8mph /  4.5km/h 2.9mph /  4.7km/h 99% 0.00in /  0mm 140 W/m2
08:39 43.3 °F /  6.3 °C 43.1 °F /  6.2 °C 30.21in /  1022.9hPa NE 4.1mph /  6.6km/h 5mph /  8km/h 99% 0.00in /  0mm 138 W/m2
08:44 43.6 °F /  6.4 °C 43.3 °F /  6.3 °C 30.21in /  1022.9hPa NE 3mph /  4.8km/h 5mph /  8km/h 99% 0.00in /  0mm 125 W/m2
08:49 43.8 °F /  6.6 °C 43.5 °F /  6.4 °C 30.21in /  1022.9hPa North 4.5mph /  7.2km/h 5mph /  8km/h 99% 0.00in /  0mm 128 W/m2
08:54 43.9 °F /  6.6 °C 43.6 °F /  6.4 °C 30.21in /  1022.9hPa North 3.2mph /  5.1km/h 5mph /  8km/h 99% 0.00in /  0mm 130 W/m2
08:59 44.1 °F /  6.7 °C 43.8 °F /  6.6 °C 30.21in /  1022.9hPa North 2.1mph /  3.4km/h 4mph /  6.4km/h 99% 0.00in /  0mm 127 W/m2
09:04 44.1 °F /  6.7 °C 43.8 °F /  6.6 °C 30.21in /  1022.9hPa NNE 3.5mph /  5.6km/h 2.7mph /  4.3km/h 99% 0.00in /  0mm 115 W/m2
09:09 44.1 °F /  6.7 °C 43.9 °F /  6.6 °C 30.21in /  1022.9hPa NNE 3.1mph /  5km/h 5mph /  8km/h 99% 0.00in /  0mm 96 W/m2
09:14 44.2 °F /  6.8 °C 44 °F /  6.7 °C 30.21in /  1022.9hPa NNE 3.9mph /  6.3km/h 6mph /  9.7km/h 99% 0.00in /  0mm 93 W/m2
09:19 44.2 °F /  6.8 °C 44 °F /  6.7 °C 30.21in /  1022.9hPa North 3.4mph /  5.5km/h 5mph /  8km/h 99% 0.00in /  0mm 93 W/m2
09:24 44.3 °F /  6.8 °C 44.1 °F /  6.7 °C 30.21in /  1022.9hPa North 3.5mph /  5.6km/h 4mph /  6.4km/h 99% 0.00in /  0mm 91 W/m2
09:29 44.4 °F /  6.9 °C 44.2 °F /  6.8 °C 30.21in /  1022.9hPa North 3.4mph /  5.5km/h 4mph /  6.4km/h 99% 0.00in /  0mm 88 W/m2
09:34 44.4 °F /  6.9 °C 44.2 °F /  6.8 °C 30.21in /  1022.9hPa North 4.2mph /  6.8km/h 4mph /  6.4km/h 99% 0.00in /  0mm 86 W/m2
09:39 44.4 °F /  6.9 °C 44.2 °F /  6.8 °C 30.21in /  1022.9hPa NNE 5.1mph /  8.2km/h 6mph /  9.7km/h 99% 0.00in /  0mm 83 W/m2
09:44 44.5 °F /  6.9 °C 44.3 °F /  6.8 °C 30.21in /  1022.9hPa NNE 4.2mph /  6.8km/h 6mph /  9.7km/h 99% 0.00in /  0mm 86 W/m2
09:49 44.6 °F /  7 °C 44.3 °F /  6.8 °C 30.20in /  1022.6hPa NNE 3.6mph /  5.8km/h 5mph /  8km/h 99% 0.00in /  0mm 97 W/m2
09:54 44.6 °F /  7 °C 44.3 °F /  6.8 °C 30.20in /  1022.6hPa NNE 3mph /  4.8km/h 4mph /  6.4km/h 99% 0.00in /  0mm 97 W/m2
09:59 44.6 °F /  7 °C 44.3 °F /  6.8 °C 30.20in /  1022.6hPa NNE 3.2mph /  5.1km/h 4mph /  6.4km/h 99% 0.00in /  0mm 122 W/m2
10:04 44.7 °F /  7.1 °C 44.3 °F /  6.8 °C 30.20in /  1022.6hPa North 3mph /  4.8km/h 4mph /  6.4km/h 99% 0.00in /  0mm 119 W/m2
10:09 44.8 °F /  7.1 °C 44.5 °F /  6.9 °C 30.20in /  1022.6hPa North 5.4mph /  8.7km/h 5mph /  8km/h 99% 0.00in /  0mm 114 W/m2
10:14 44.8 °F /  7.1 °C 44.5 °F /  6.9 °C 30.20in /  1022.6hPa North 4.2mph /  6.8km/h 6mph /  9.7km/h 99% 0.00in /  0mm 96 W/m2
10:19 44.8 °F /  7.1 °C 44.5 °F /  6.9 °C 30.19in /  1022.2hPa North 5.1mph /  8.2km/h 5mph /  8km/h 99% 0.00in /  0mm 92 W/m2
10:24 44.8 °F /  7.1 °C 44.5 °F /  6.9 °C 30.19in /  1022.2hPa NNE 4.8mph /  7.7km/h 7mph /  11.3km/h 99% 0.00in /  0mm 93 W/m2
10:29 44.9 °F /  7.2 °C 44.6 °F /  7 °C 30.19in /  1022.2hPa NNE 4mph /  6.4km/h 6mph /  9.7km/h 99% 0.00in /  0mm 111 W/m2
10:34 45 °F /  7.2 °C 44.7 °F /  7.1 °C 30.19in /  1022.2hPa NNE 3.9mph /  6.3km/h 5mph /  8km/h 99% 0.00in /  0mm 156 W/m2
10:39 45.1 °F /  7.3 °C 44.9 °F /  7.2 °C 30.19in /  1022.2hPa NNE 4.8mph /  7.7km/h 7mph /  11.3km/h 99% 0.00in /  0mm 158 W/m2
10:44 45.2 °F /  7.3 °C 45 °F /  7.2 °C 30.19in /  1022.2hPa NNE 3.6mph /  5.8km/h 6mph /  9.7km/h 99% 0.00in /  0mm 145 W/m2
10:49 45.3 °F /  7.4 °C 45.1 °F /  7.3 °C 30.19in /  1022.2hPa North 3.9mph /  6.3km/h 5mph /  8km/h 99% 0.00in /  0mm 124 W/m2
10:54 45.3 °F /  7.4 °C 44.9 °F /  7.2 °C 30.19in /  1022.2hPa North 4.3mph /  6.9km/h 2mph /  3.2km/h 98.4% 0.00in /  0mm 109 W/m2
10:59 45.3 °F /  7.4 °C 44.8 °F /  7.1 °C 30.19in /  1022.2hPa North 3.4mph /  5.5km/h 5mph /  8km/h 98% 0.00in /  0mm 122 W/m2
11:04 45.4 °F /  7.4 °C 44.9 °F /  7.2 °C 30.18in /  1021.9hPa North 4.3mph /  6.9km/h 5mph /  8km/h 98% 0.00in /  0mm 122 W/m2
11:09 45.4 °F /  7.4 °C 44.9 °F /  7.2 °C 30.18in /  1021.9hPa North 3mph /  4.8km/h 5mph /  8km/h 98% 0.00in /  0mm 140 W/m2
11:14 45.5 °F /  7.5 °C 45 °F /  7.2 °C 30.18in /  1021.9hPa North 3.3mph /  5.3km/h 4mph /  6.4km/h 98% 0.00in /  0mm 158 W/m2
11:19 45.5 °F /  7.5 °C 45 °F /  7.2 °C 30.18in /  1021.9hPa NNW 3.9mph /  6.3km/h 5mph /  8km/h 98% 0.00in /  0mm 150 W/m2
11:24 45.5 °F /  7.5 °C 45 °F /  7.2 °C 30.17in /  1021.6hPa North 5.1mph /  8.2km/h 5mph /  8km/h 98% 0.00in /  0mm 111 W/m2
11:29 45.5 °F /  7.5 °C 45 °F /  7.2 °C 30.17in /  1021.6hPa North 4.4mph /  7.1km/h 6mph /  9.7km/h 98% 0.00in /  0mm 111 W/m2
11:34 45.6 °F /  7.6 °C 45.1 °F /  7.3 °C 30.17in /  1021.6hPa NNE 4.3mph /  6.9km/h 6mph /  9.7km/h 98% 0.00in /  0mm 135 W/m2
11:39 45.8 °F /  7.7 °C 45.2 °F /  7.3 °C 30.17in /  1021.6hPa NNE 3.8mph /  6.1km/h 5mph /  8km/h 98% 0.00in /  0mm 166 W/m2
11:44 45.9 °F /  7.7 °C 45 °F /  7.2 °C 30.17in /  1021.6hPa North 3.6mph /  5.8km/h 5mph /  8km/h 96.8% 0.00in /  0mm 168 W/m2
11:49 45.9 °F /  7.7 °C 44.9 °F /  7.2 °C 30.17in /  1021.6hPa North 3.5mph /  5.6km/h 5mph /  8km/h 96% 0.00in /  0mm 190 W/m2
11:54 46.1 °F /  7.8 °C 45.1 °F /  7.3 °C 30.17in /  1021.6hPa North 2.4mph /  3.9km/h 4mph /  6.4km/h 96% 0.00in /  0mm 199 W/m2
11:59 46.3 °F /  7.9 °C 45.1 °F /  7.3 °C 30.17in /  1021.6hPa NNW 2.9mph /  4.7km/h 2mph /  3.2km/h 95.5% 0.00in /  0mm 190 W/m2
12:04 46.6 °F /  8.1 °C 45.2 °F /  7.3 °C 30.17in /  1021.6hPa NW 2.6mph /  4.2km/h 3mph /  4.8km/h 95% 0.00in /  0mm 189 W/m2
12:09 46.6 °F /  8.1 °C 45.2 °F /  7.3 °C 30.16in /  1021.2hPa NNW 3.6mph /  5.8km/h 3mph /  4.8km/h 95% 0.00in /  0mm 193 W/m2
12:14 46.8 °F /  8.2 °C 45.4 °F /  7.4 °C 30.16in /  1021.2hPa NNE 3.3mph /  5.3km/h 5mph /  8km/h 95% 0.00in /  0mm 180 W/m2
12:19 46.9 °F /  8.3 °C 45.5 °F /  7.5 °C 30.16in /  1021.2hPa NNE 3.4mph /  5.5km/h 4mph /  6.4km/h 94.8% 0.00in /  0mm 177 W/m2
12:24 46.9 °F /  8.3 °C 45.5 °F /  7.5 °C 30.16in /  1021.2hPa North 2.3mph /  3.7km/h 3mph /  4.8km/h 94.5% 0.00in /  0mm 161 W/m2
12:29 47.1 °F /  8.4 °C 45.7 °F /  7.6 °C 30.15in /  1020.9hPa NNW 3.9mph /  6.3km/h 4mph /  6.4km/h 94.6% 0.00in /  0mm 177 W/m2
12:34 47.1 °F /  8.4 °C 45.5 °F /  7.5 °C 30.15in /  1020.9hPa North 3.2mph /  5.1km/h 5mph /  8km/h 94.1% 0.00in /  0mm 170 W/m2
12:39 47.3 °F /  8.5 °C 45.7 °F /  7.6 °C 30.15in /  1020.9hPa North 3.1mph /  5km/h 5mph /  8km/h 94% 0.00in /  0mm 164 W/m2
12:44 47.3 °F /  8.5 °C 45.7 °F /  7.6 °C 30.15in /  1020.9hPa North 2.6mph /  4.2km/h 4mph /  6.4km/h 94% 0.00in /  0mm 168 W/m2
12:49 47.5 °F /  8.6 °C 45.8 °F /  7.7 °C 30.14in /  1020.5hPa North 3mph /  4.8km/h 4mph /  6.4km/h 94% 0.00in /  0mm 180 W/m2
12:54 47.6 °F /  8.7 °C 45.8 °F /  7.7 °C 30.14in /  1020.5hPa North 2.9mph /  4.7km/h 4mph /  6.4km/h 93.5% 0.00in /  0mm 169 W/m2
12:59 47.5 °F /  8.6 °C 45.8 °F /  7.7 °C 30.14in /  1020.5hPa North 2.2mph /  3.5km/h 4mph /  6.4km/h 93.9% 0.00in /  0mm 145 W/m2
13:04 47.7 °F /  8.7 °C 46 °F /  7.8 °C 30.14in /  1020.5hPa North 4.9mph /  7.9km/h 4.5mph /  7.2km/h 94% 0.00in /  0mm 137 W/m2
13:09 47.8 °F /  8.8 °C 46.1 °F /  7.8 °C 30.14in /  1020.5hPa NNE 4.5mph /  7.2km/h 6mph /  9.7km/h 94% 0.00in /  0mm 145 W/m2
13:14 47.8 °F /  8.8 °C 46.2 °F /  7.9 °C 30.14in /  1020.5hPa NNE 4mph /  6.4km/h 5mph /  8km/h 94% 0.00in /  0mm 145 W/m2
13:19 47.9 °F /  8.8 °C 46.3 °F /  7.9 °C 30.14in /  1020.5hPa NNE 3.8mph /  6.1km/h 5mph /  8km/h 94% 0.00in /  0mm 156 W/m2
13:24 48.1 °F /  8.9 °C 46.5 °F /  8.1 °C 30.14in /  1020.5hPa North 4.2mph /  6.8km/h 5mph /  8km/h 94% 0.00in /  0mm 158 W/m2
13:29 48.2 °F /  9 °C 46.6 °F /  8.1 °C 30.14in /  1020.5hPa NNE 3.8mph /  6.1km/h 5mph /  8km/h 94% 0.00in /  0mm 132 W/m2
13:34 48.1 °F /  8.9 °C 46.5 °F /  8.1 °C 30.14in /  1020.5hPa NNE 4.8mph /  7.7km/h 6mph /  9.7km/h 94% 0.00in /  0mm 120 W/m2
13:39 48 °F /  8.9 °C 46.4 °F /  8 °C 30.13in /  1020.2hPa NNE 3.7mph /  6km/h 6mph /  9.7km/h 94% 0.00in /  0mm 105 W/m2
13:44 48 °F /  8.9 °C 46.4 °F /  8 °C 30.13in /  1020.2hPa NNE 5mph /  8km/h 5mph /  8km/h 94% 0.00in /  0mm 102 W/m2
13:49 48 °F /  8.9 °C 46.4 °F /  8 °C 30.13in /  1020.2hPa NNE 5.5mph /  8.9km/h 6mph /  9.7km/h 94% 0.00in /  0mm 101 W/m2
13:54 47.9 °F /  8.8 °C 46.3 °F /  7.9 °C 30.13in /  1020.2hPa NNE 5.5mph /  8.9km/h 7mph /  11.3km/h 94% 0.00in /  0mm 81 W/m2
13:59 47.8 °F /  8.8 °C 46.1 °F /  7.8 °C 30.13in /  1020.2hPa NNE 6.5mph /  10.5km/h 7mph /  11.3km/h 94% 0.00in /  0mm 65 W/m2
14:04 47.7 °F /  8.7 °C 46.2 °F /  7.9 °C 30.13in /  1020.2hPa NNE 6.1mph /  9.8km/h 8mph /  12.9km/h 94.5% 0.00in /  0mm 53 W/m2
14:09 47.7 °F /  8.7 °C 46.3 °F /  7.9 °C 30.13in /  1020.2hPa North 4.6mph /  7.4km/h 6mph /  9.7km/h 95% 0.00in /  0mm 38 W/m2
14:14 47.5 °F /  8.6 °C 46.1 °F /  7.8 °C 30.13in /  1020.2hPa North 5mph /  8km/h 6mph /  9.7km/h 95% 0.00in /  0mm 41 W/m2
14:19 47.5 °F /  8.6 °C 46.1 °F /  7.8 °C 30.12in /  1019.9hPa North 5.3mph /  8.5km/h 6mph /  9.7km/h 95% 0.00in /  0mm 49 W/m2
14:24 47.3 °F /  8.5 °C 45.9 °F /  7.7 °C 30.12in /  1019.9hPa North 4.3mph /  6.9km/h 7mph /  11.3km/h 95% 0.00in /  0mm 55 W/m2
14:29 47.3 °F /  8.5 °C 45.9 °F /  7.7 °C 30.12in /  1019.9hPa North 5.1mph /  8.2km/h 6mph /  9.7km/h 95% 0.00in /  0mm 71 W/m2
14:34 47.3 °F /  8.5 °C 45.9 °F /  7.7 °C 30.12in /  1019.9hPa North 4.7mph /  7.6km/h 6mph /  9.7km/h 95% 0.00in /  0mm 75 W/m2
14:39 47.3 °F /  8.5 °C 45.9 °F /  7.7 °C 30.12in /  1019.9hPa NNE 4.3mph /  6.9km/h 6mph /  9.7km/h 95% 0.00in /  0mm 83 W/m2
14:44 47.3 °F /  8.5 °C 46 °F /  7.8 °C 30.12in /  1019.9hPa NNE 4.6mph /  7.4km/h 5mph /  8km/h 95.3% 0.00in /  0mm 82 W/m2
14:49 47.3 °F /  8.5 °C 46 °F /  7.8 °C 30.12in /  1019.9hPa NNE 4.7mph /  7.6km/h 6mph /  9.7km/h 95.4% 0.00in /  0mm 66 W/m2
14:54 47.2 °F /  8.4 °C 46.1 °F /  7.8 °C 30.12in /  1019.9hPa NNE 5.2mph /  8.4km/h 6mph /  9.7km/h 96% 0.00in /  0mm 59 W/m2
14:59 47.1 °F /  8.4 °C 46 °F /  7.8 °C 30.12in /  1019.9hPa NNE 5mph /  8km/h 6mph /  9.7km/h 96% 0.00in /  0mm 59 W/m2
15:04 47.1 °F /  8.4 °C 46 °F /  7.8 °C 30.12in /  1019.9hPa NNE 5mph /  8km/h 6mph /  9.7km/h 96% 0.00in /  0mm 56 W/m2
15:09 47 °F /  8.3 °C 45.9 °F /  7.7 °C 30.12in /  1019.9hPa NNE 4.3mph /  6.9km/h 6mph /  9.7km/h 96% 0.00in /  0mm 43 W/m2
15:14 46.9 °F /  8.3 °C 45.9 °F /  7.7 °C 30.12in /  1019.9hPa North 5.1mph /  8.2km/h 6mph /  9.7km/h 96% 0.00in /  0mm 36 W/m2
15:19 46.8 °F /  8.2 °C 45.8 °F /  7.7 °C 30.12in /  1019.9hPa NNE 5.4mph /  8.7km/h 6mph /  9.7km/h 96% 0.00in /  0mm 35 W/m2
15:24 46.7 °F /  8.2 °C 45.6 °F /  7.6 °C 30.11in /  1019.5hPa NNE 6.1mph /  9.8km/h 6mph /  9.7km/h 96% 0.00in /  0mm 32 W/m2
15:29 46.5 °F /  8.1 °C 45.4 °F /  7.4 °C 30.11in /  1019.5hPa NNE 6.3mph /  10.1km/h 7mph /  11.3km/h 96% 0.00in /  0mm 25 W/m2
15:34 46.4 °F /  8 °C 45.7 °F /  7.6 °C 30.11in /  1019.5hPa North 6.1mph /  9.8km/h 8mph /  12.9km/h 97.5% 0.00in /  0mm 23 W/m2
15:39 46.2 °F /  7.9 °C 45.7 °F /  7.6 °C 30.11in /  1019.5hPa North 6.8mph /  10.9km/h 7mph /  11.3km/h 98% 0.00in /  0mm 23 W/m2
15:44 46.1 °F /  7.8 °C 45.6 °F /  7.6 °C 30.11in /  1019.5hPa NNE 6.2mph /  10km/h 7mph /  11.3km/h 98% 0.00in /  0mm 19 W/m2
15:49 46 °F /  7.8 °C 45.5 °F /  7.5 °C 30.11in /  1019.5hPa North 5.7mph /  9.2km/h 7mph /  11.3km/h 98% 0.00in /  0mm 15 W/m2
15:54 45.9 °F /  7.7 °C 45.4 °F /  7.4 °C 30.10in /  1019.2hPa North 5.2mph /  8.4km/h 7mph /  11.3km/h 98% 0.00in /  0mm 9 W/m2
15:59 45.9 °F /  7.7 °C 45.5 °F /  7.5 °C 30.10in /  1019.2hPa North 5.6mph /  9km/h 6mph /  9.7km/h 98.7% 0.00in /  0mm 7 W/m2
16:04 45.8 °F /  7.7 °C 45.5 °F /  7.5 °C 30.10in /  1019.2hPa NNE 5.1mph /  8.2km/h 6mph /  9.7km/h 99% 0.00in /  0mm 4 W/m2
16:09 45.7 °F /  7.6 °C 45.4 °F /  7.4 °C 30.10in /  1019.2hPa NNE 5.6mph /  9km/h 6mph /  9.7km/h 99% 0.00in /  0mm 2 W/m2
16:14 45.6 °F /  7.6 °C 45.3 °F /  7.4 °C 30.10in /  1019.2hPa NNE 5.2mph /  8.4km/h 8mph /  12.9km/h 99% 0.00in /  0mm 1 W/m2
16:19 45.5 °F /  7.5 °C 45.2 °F /  7.3 °C 30.10in /  1019.2hPa North 5.2mph /  8.4km/h 6mph /  9.7km/h 99% 0.00in /  0mm 0 W/m2
16:24 45.4 °F /  7.4 °C 45.2 °F /  7.3 °C 30.10in /  1019.2hPa NNE 5.4mph /  8.7km/h 6mph /  9.7km/h 99% 0.00in /  0mm 0 W/m2
16:29 45.3 °F /  7.4 °C 45.1 °F /  7.3 °C 30.10in /  1019.2hPa NNE 5.3mph /  8.5km/h 6mph /  9.7km/h 99% 0.00in /  0mm 0 W/m2
16:34 45.3 °F /  7.4 °C 45.1 °F /  7.3 °C 30.10in /  1019.2hPa NNE 4.8mph /  7.7km/h 6mph /  9.7km/h 99% 0.00in /  0mm 0 W/m2
16:39 45.1 °F /  7.3 °C 44.9 °F /  7.2 °C 30.10in /  1019.2hPa NNE 4.5mph /  7.2km/h 6mph /  9.7km/h 99% 0.00in /  0mm 0 W/m2
16:44 45.1 °F /  7.3 °C 44.9 °F /  7.2 °C 30.10in /  1019.2hPa NNE 4.7mph /  7.6km/h 6mph /  9.7km/h 99% 0.00in /  0mm 0 W/m2
16:49 45.1 °F /  7.3 °C 44.9 °F /  7.2 °C 30.10in /  1019.2hPa NNE 4mph /  6.4km/h 5mph /  8km/h 99% 0.00in /  0mm 0 W/m2
16:54 45.1 °F /  7.3 °C 44.9 °F /  7.2 °C 30.10in /  1019.2hPa NNE 5.5mph /  8.9km/h 5mph /  8km/h 99% 0.00in /  0mm 0 W/m2
16:59 45.1 °F /  7.3 °C 44.8 °F /  7.1 °C 30.10in /  1019.2hPa NNE 5.2mph /  8.4km/h 7mph /  11.3km/h 99% 0.00in /  0mm 0 W/m2
17:04 45 °F /  7.2 °C 44.8 °F /  7.1 °C 30.10in /  1019.2hPa NNE 4.1mph /  6.6km/h 7mph /  11.3km/h 99% 0.00in /  0mm 0 W/m2
17:09 45 °F /  7.2 °C 44.7 °F /  7.1 °C 30.10in /  1019.2hPa NNE 4.4mph /  7.1km/h 5mph /  8km/h 99% 0.00in /  0mm 0 W/m2
17:14 45 °F /  7.2 °C 44.7 °F /  7.1 °C 30.10in /  1019.2hPa NNE 3.8mph /  6.1km/h 5mph /  8km/h 99% 0.00in /  0mm 0 W/m2
17:19 45 °F /  7.2 °C 44.7 °F /  7.1 °C 30.10in /  1019.2hPa NNE 3.5mph /  5.6km/h 5mph /  8km/h 99% 0.00in /  0mm 0 W/m2
17:24 44.9 °F /  7.2 °C 44.6 °F /  7 °C 30.10in /  1019.2hPa NNE 3.8mph /  6.1km/h 4mph /  6.4km/h 99% 0.00in /  0mm 0 W/m2
17:29 44.8 °F /  7.1 °C 44.5 °F /  6.9 °C 30.10in /  1019.2hPa NNE 4.3mph /  6.9km/h 5mph /  8km/h 99% 0.00in /  0mm 0 W/m2
17:34 44.8 °F /  7.1 °C 44.5 °F /  6.9 °C 30.09in /  1018.8hPa NNE 4.9mph /  7.9km/h 6mph /  9.7km/h 99% 0.00in /  0mm 0 W/m2
17:39 44.8 °F /  7.1 °C 44.5 °F /  6.9 °C 30.09in /  1018.8hPa NNE 5mph /  8km/h 6mph /  9.7km/h 99% 0.00in /  0mm 0 W/m2
17:44 44.8 °F /  7.1 °C 44.5 °F /  6.9 °C 30.09in /  1018.8hPa NNE 4.6mph /  7.4km/h 6mph /  9.7km/h 99% 0.00in /  0mm 0 W/m2
17:49 44.6 °F /  7 °C 44.3 °F /  6.8 °C 30.09in /  1018.8hPa NNE 4mph /  6.4km/h 5mph /  8km/h 99% 0.00in /  0mm 0 W/m2
17:54 44.6 °F /  7 °C 44.3 °F /  6.8 °C 30.09in /  1018.8hPa NNE 4.7mph /  7.6km/h 5mph /  8km/h 99% 0.00in /  0mm 0 W/m2
17:59 44.6 °F /  7 °C 44.3 °F /  6.8 °C 30.09in /  1018.8hPa NNE 3.5mph /  5.6km/h 6mph /  9.7km/h 99% 0.00in /  0mm 0 W/m2
18:04 44.6 °F /  7 °C 44.3 °F /  6.8 °C 30.09in /  1018.8hPa NNE 3.7mph /  6km/h 5mph /  8km/h 99% 0.00in /  0mm 0 W/m2
18:09 44.6 °F /  7 °C 44.3 °F /  6.8 °C 30.09in /  1018.8hPa NNE 3.5mph /  5.6km/h 5mph /  8km/h 99% 0.00in /  0mm 0 W/m2
18:14 44.6 °F /  7 °C 44.3 °F /  6.8 °C 30.09in /  1018.8hPa NNE 3.7mph /  6km/h 4mph /  6.4km/h 99% 0.00in /  0mm 0 W/m2
18:19 44.6 °F /  7 °C 44.3 °F /  6.8 °C 30.09in /  1018.8hPa NNE 3.9mph /  6.3km/h 5mph /  8km/h 99% 0.00in /  0mm 0 W/m2
18:24 44.6 °F /  7 °C 44.3 °F /  6.8 °C 30.08in /  1018.5hPa NNE 3.2mph /  5.1km/h 5mph /  8km/h 99% 0.00in /  0mm 0 W/m2
18:29 44.6 °F /  7 °C 44.3 °F /  6.8 °C 30.09in /  1018.8hPa North 2.9mph /  4.7km/h 3mph /  4.8km/h 99% 0.00in /  0mm 0 W/m2
18:34 44.6 °F /  7 °C 44.3 °F /  6.8 °C 30.08in /  1018.5hPa North 3.9mph /  6.3km/h 3.4mph /  5.5km/h 99% 0.00in /  0mm 0 W/m2
18:39 44.6 °F /  7 °C 44.3 °F /  6.8 °C 30.08in /  1018.5hPa North 3.2mph /  5.1km/h 5mph /  8km/h 99% 0.00in /  0mm 0 W/m2
18:44 44.6 °F /  7 °C 44.3 °F /  6.8 °C 30.08in /  1018.5hPa North 2.4mph /  3.9km/h 3mph /  4.8km/h 99% 0.00in /  0mm 0 W/m2
18:49 44.6 °F /  7 °C 44.3 °F /  6.8 °C 30.08in /  1018.5hPa North 2.8mph /  4.5km/h 3mph /  4.8km/h 99% 0.00in /  0mm 0 W/m2
18:54 44.6 °F /  7 °C 44.3 °F /  6.8 °C 30.08in /  1018.5hPa North 3.7mph /  6km/h 3mph /  4.8km/h 99% 0.00in /  0mm 0 W/m2
18:59 44.6 °F /  7 °C 44.3 °F /  6.8 °C 30.08in /  1018.5hPa NNE 3.4mph /  5.5km/h 5mph /  8km/h 99% 0.00in /  0mm 0 W/m2
19:04 44.6 °F /  7 °C 44.3 °F /  6.8 °C 30.08in /  1018.5hPa NNE 3.1mph /  5km/h 4mph /  6.4km/h 99% 0.00in /  0mm 0 W/m2
19:09 44.5 °F /  6.9 °C 44.3 °F /  6.8 °C 30.08in /  1018.5hPa NNE 3.7mph /  6km/h 4mph /  6.4km/h 99% 0.00in /  0mm 0 W/m2
19:14 44.4 °F /  6.9 °C 44.2 °F /  6.8 °C 30.08in /  1018.5hPa NNE 2mph /  3.2km/h 5mph /  8km/h 99% 0.00in /  0mm 0 W/m2
19:19 44.4 °F /  6.9 °C 44.2 °F /  6.8 °C 30.08in /  1018.5hPa NNE 1.8mph /  2.9km/h 3mph /  4.8km/h 99% 0.00in /  0mm 0 W/m2
19:24 44.4 °F /  6.9 °C 44.2 °F /  6.8 °C 30.08in /  1018.5hPa NNE 2.4mph /  3.9km/h 2mph /  3.2km/h 99% 0.00in /  0mm 0 W/m2
19:29 44.4 °F /  6.9 °C 44.2 °F /  6.8 °C 30.07in /  1018.2hPa NNE 2mph /  3.2km/h 3mph /  4.8km/h 99% 0.00in /  0mm 0 W/m2
19:34 44.4 °F /  6.9 °C 44.2 °F /  6.8 °C 30.07in /  1018.2hPa North 2.1mph /  3.4km/h 2mph /  3.2km/h 99% 0.00in /  0mm 0 W/m2
19:39 44.4 °F /  6.9 °C 44.2 °F /  6.8 °C 30.07in /  1018.2hPa North 2.2mph /  3.5km/h 2mph /  3.2km/h 99% 0.00in /  0mm 0 W/m2
19:44 44.4 °F /  6.9 °C 44.2 °F /  6.8 °C 30.07in /  1018.2hPa NNE 2.1mph /  3.4km/h 2mph /  3.2km/h 99% 0.00in /  0mm 0 W/m2
19:49 44.3 °F /  6.8 °C 44.1 °F /  6.7 °C 30.07in /  1018.2hPa NNE 2.3mph /  3.7km/h 2mph /  3.2km/h 99% 0.00in /  0mm 0 W/m2
19:54 44.4 °F /  6.9 °C 44.2 °F /  6.8 °C 30.07in /  1018.2hPa NNE 1.2mph /  1.9km/h 2mph /  3.2km/h 99% 0.00in /  0mm 0 W/m2
19:59 44.4 °F /  6.9 °C 44.2 °F /  6.8 °C 30.06in /  1017.8hPa North 1.1mph /  1.8km/h 2mph /  3.2km/h 99% 0.00in /  0mm 0 W/m2
20:04 44.4 °F /  6.9 °C 44.2 °F /  6.8 °C 30.06in /  1017.8hPa North 2mph /  3.2km/h 2mph /  3.2km/h 99% 0.00in /  0mm 0 W/m2
20:09 44.3 °F /  6.8 °C 44.1 °F /  6.7 °C 30.06in /  1017.8hPa North 2.2mph /  3.5km/h 2mph /  3.2km/h 99% 0.00in /  0mm 0 W/m2
20:14 44.2 °F /  6.8 °C 44 °F /  6.7 °C 30.06in /  1017.8hPa North 1.8mph /  2.9km/h 2mph /  3.2km/h 99% 0.00in /  0mm 0 W/m2
20:19 44.2 °F /  6.8 °C 44 °F /  6.7 °C 30.06in /  1017.8hPa North 1mph /  1.6km/h 2mph /  3.2km/h 99% 0.00in /  0mm 0 W/m2
20:24 44.2 °F /  6.8 °C 44 °F /  6.7 °C 30.06in /  1017.8hPa Calm   1mph /  1.6km/h 99% 0.00in /  0mm 0 W/m2
20:29 44.2 °F /  6.8 °C 44 °F /  6.7 °C 30.06in /  1017.8hPa North 0.5mph /  0.8km/h 0.2mph /  0.3km/h 99% 0.00in /  0mm 0 W/m2
20:34 44.2 °F /  6.8 °C 44 °F /  6.7 °C 30.06in /  1017.8hPa North 1.3mph /  2.1km/h 1.1mph /  1.8km/h 99% 0.00in /  0mm 0 W/m2
20:39 44.2 °F /  6.8 °C 44 °F /  6.7 °C 30.06in /  1017.8hPa NE 2.3mph /  3.7km/h 2mph /  3.2km/h 99% 0.00in /  0mm 0 W/m2
20:44 44.2 °F /  6.8 °C 44 °F /  6.7 °C 30.06in /  1017.8hPa SE 2.3mph /  3.7km/h 3mph /  4.8km/h 99% 0.00in /  0mm 0 W/m2
20:49 44.2 °F /  6.8 °C 44 °F /  6.7 °C 30.06in /  1017.8hPa SSW 2.2mph /  3.5km/h 3mph /  4.8km/h 99% 0.00in /  0mm 0 W/m2
20:54 44.2 °F /  6.8 °C 44 °F /  6.7 °C 30.06in /  1017.8hPa SW 1.5mph /  2.4km/h 2mph /  3.2km/h 99% 0.00in /  0mm 0 W/m2
20:59 44.2 °F /  6.8 °C 44 °F /  6.7 °C 30.06in /  1017.8hPa South 1.9mph /  3.1km/h 2mph /  3.2km/h 99% 0.00in /  0mm 0 W/m2
21:04 44.2 °F /  6.8 °C 44 °F /  6.7 °C 30.06in /  1017.8hPa ENE 1.7mph /  2.7km/h 2mph /  3.2km/h 99% 0.00in /  0mm 0 W/m2
21:09 44.2 °F /  6.8 °C 44 °F /  6.7 °C 30.06in /  1017.8hPa SSE 3mph /  4.8km/h 2.7mph /  4.3km/h 99% 0.00in /  0mm 0 W/m2
21:14 44.2 °F /  6.8 °C 44 °F /  6.7 °C 30.06in /  1017.8hPa South 2.2mph /  3.5km/h 4mph /  6.4km/h 99% 0.00in /  0mm 0 W/m2
21:19 44.2 °F /  6.8 °C 44 °F /  6.7 °C 30.06in /  1017.8hPa SE 1.4mph /  2.3km/h 4mph /  6.4km/h 99% 0.00in /  0mm 0 W/m2
21:20 44.2 °F /  6.8 °C 44 °F /  6.7 °C 30.05in /  1017.5hPa East 1.8mph /  2.9km/h 2mph /  3.2km/h 99% 0.00in /  0mm 0 W/m2
21:25 44.2 °F /  6.8 °C 44 °F /  6.7 °C 30.05in /  1017.5hPa Calm   2mph /  3.2km/h 99% 0.00in /  0mm 0 W/m2
21:30 44.2 °F /  6.8 °C 44 °F /  6.7 °C 30.05in /  1017.5hPa WNW 1mph /  1.6km/h 2mph /  3.2km/h 99% 0.00in /  0mm 0 W/m2
21:35 44.2 °F /  6.8 °C 44 °F /  6.7 °C 30.05in /  1017.5hPa Calm   1mph /  1.6km/h 99% 0.00in /  0mm 0 W/m2
21:44 44.2 °F /  6.8 °C 44 °F /  6.7 °C 30.05in /  1017.5hPa North 0.7mph /  1.1km/h   99% 0.00in /  0mm 0 W/m2
21:49 44.2 °F /  6.8 °C 44 °F /  6.7 °C 30.05in /  1017.5hPa NNW 1.9mph /  3.1km/h 2mph /  3.2km/h 99% 0.00in /  0mm 0 W/m2
21:54 44.2 °F /  6.8 °C 44 °F /  6.7 °C 30.05in /  1017.5hPa West 1.8mph /  2.9km/h 2mph /  3.2km/h 99% 0.00in /  0mm 0 W/m2
21:59 44.2 °F /  6.8 °C 44 °F /  6.7 °C 30.04in /  1017.2hPa WNW 1.9mph /  3.1km/h 2mph /  3.2km/h 99% 0.00in /  0mm 0 W/m2
22:04 44.2 °F /  6.8 °C 44 °F /  6.7 °C 30.04in /  1017.2hPa West 2.2mph /  3.5km/h 3mph /  4.8km/h 99% 0.00in /  0mm 0 W/m2
22:09 44.2 °F /  6.8 °C 43.9 °F /  6.6 °C 30.05in /  1017.5hPa West 3.1mph /  5km/h 3mph /  4.8km/h 99% 0.00in /  0mm 0 W/m2
22:14 44.1 °F /  6.7 °C 43.8 °F /  6.6 °C 30.04in /  1017.2hPa West 2.3mph /  3.7km/h 4mph /  6.4km/h 99% 0.00in /  0mm 0 W/m2
22:19 44.1 °F /  6.7 °C 43.8 °F /  6.6 °C 30.04in /  1017.2hPa West 2mph /  3.2km/h 3mph /  4.8km/h 99% 0.00in /  0mm 0 W/m2
22:24 44.1 °F /  6.7 °C 43.8 °F /  6.6 °C 30.04in /  1017.2hPa West 1.3mph /  2.1km/h 3mph /  4.8km/h 99% 0.00in /  0mm 0 W/m2
22:29 44.1 °F /  6.7 °C 43.8 °F /  6.6 °C 30.04in /  1017.2hPa West 1.9mph /  3.1km/h 2mph /  3.2km/h 99% 0.00in /  0mm 0 W/m2
22:34 44 °F /  6.7 °C 43.7 °F /  6.5 °C 30.04in /  1017.2hPa West 2.2mph /  3.5km/h 2mph /  3.2km/h 99% 0.00in /  0mm 0 W/m2
22:39 43.9 °F /  6.6 °C 43.6 °F /  6.4 °C 30.04in /  1017.2hPa West 0.7mph /  1.1km/h 2mph /  3.2km/h 99% 0.00in /  0mm 0 W/m2
22:44 43.9 °F /  6.6 °C 43.6 °F /  6.4 °C 30.04in /  1017.2hPa West 1.8mph /  2.9km/h 2mph /  3.2km/h 99% 0.00in /  0mm 0 W/m2
22:49 43.9 °F /  6.6 °C 43.6 °F /  6.4 °C 30.04in /  1017.2hPa SW 2.1mph /  3.4km/h 2mph /  3.2km/h 99% 0.00in /  0mm 0 W/m2
22:54 43.8 °F /  6.6 °C 43.5 °F /  6.4 °C 30.04in /  1017.2hPa SW 1.6mph /  2.6km/h 2mph /  3.2km/h 99% 0.00in /  0mm 0 W/m2
22:59 43.7 °F /  6.5 °C 43.4 °F /  6.3 °C 30.03in /  1016.8hPa West 1.2mph /  1.9km/h 2mph /  3.2km/h 99% 0.00in /  0mm 0 W/m2
23:04 43.7 °F /  6.5 °C 43.4 °F /  6.3 °C 30.03in /  1016.8hPa WNW 1.4mph /  2.3km/h 2mph /  3.2km/h 99% 0.00in /  0mm 0 W/m2
23:09 43.8 °F /  6.6 °C 43.5 °F /  6.4 °C 30.03in /  1016.8hPa WNW 2.2mph /  3.5km/h 2mph /  3.2km/h 99% 0.00in /  0mm 0 W/m2
23:14 43.7 °F /  6.5 °C 43.4 °F /  6.3 °C 30.03in /  1016.8hPa WSW 2.2mph /  3.5km/h 2mph /  3.2km/h 99% 0.00in /  0mm 0 W/m2
23:19 43.7 °F /  6.5 °C 43.4 °F /  6.3 °C 30.03in /  1016.8hPa WSW 2.2mph /  3.5km/h 2mph /  3.2km/h 99% 0.00in /  0mm 0 W/m2
23:24 43.6 °F /  6.4 °C 43.4 °F /  6.3 °C 30.03in /  1016.8hPa SW 2.8mph /  4.5km/h 3mph /  4.8km/h 99% 0.00in /  0mm 0 W/m2
23:29 43.5 °F /  6.4 °C 43.3 °F /  6.3 °C 30.03in /  1016.8hPa SSW 2.5mph /  4km/h 3mph /  4.8km/h 99% 0.00in /  0mm 0 W/m2
23:34 43.4 °F /  6.3 °C 43.2 °F /  6.2 °C 30.03in /  1016.8hPa SSW 2.7mph /  4.3km/h 3mph /  4.8km/h 99% 0.00in /  0mm 0 W/m2
23:39 43.3 °F /  6.3 °C 43.1 °F /  6.2 °C 30.03in /  1016.8hPa SSW 2.2mph /  3.5km/h 3mph /  4.8km/h 99% 0.00in /  0mm 0 W/m2
23:44 43.2 °F /  6.2 °C 42.9 °F /  6.1 °C 30.02in /  1016.5hPa SW 2.1mph /  3.4km/h 2mph /  3.2km/h 99% 0.00in /  0mm 0 W/m2
23:49 43.2 °F /  6.2 °C 42.9 °F /  6.1 °C 30.02in /  1016.5hPa WSW 2.3mph /  3.7km/h 3mph /  4.8km/h 99% 0.00in /  0mm 0 W/m2
23:54 43.2 °F /  6.2 °C 42.9 °F /  6.1 °C 30.02in /  1016.5hPa WSW 2.3mph /  3.7km/h 3mph /  4.8km/h 99% 0.00in /  0mm 0 W/m2
23:59 43.2 °F /  6.2 °C 42.9 °F /  6.1 °C 30.02in /  1016.5hPa WSW 1.9mph /  3.1km/h 3mph /  4.8km/h 99% 0.00in /  0mm 0 W/m2
Knjazevac, Serbia
Compliments of Weather Underground - 4 mb